This is the latest recevied weather packets stored in our database for station/object HB9FRQ-10. If no packets are shown the sender has not sent any weather packets the latest 1 day(s).
| Time | Temp. | Humidity | Pressure | Rain* | Wind** | Luminosity | Snow |
|---|---|---|---|---|---|---|---|
| 1788616478 | 23.33° C | 73% | 1026.3 hPa | - | - | - | - |
| 1788615578 | 22.78° C | 77% | 1026.5 hPa | - | - | - | - |
| 1788614678 | 21.67° C | 79% | 1026.5 hPa | - | - | - | - |
| 1788613778 | 21.11° C | 83% | 1026.6 hPa | - | - | - | - |
| 1788612877 | 21.11° C | 86% | 1026.5 hPa | - | - | - | - |
| 1788611977 | 20.56° C | 87% | 1026.4 hPa | - | - | - | - |
| 1788611076 | 20.56° C | 87% | 1026.4 hPa | - | - | - | - |
| 1788610203 | 20° C | 88% | 1026.4 hPa | - | - | - | - |
| 1788609303 | 20.56° C | 84% | 1026.1 hPa | - | - | - | - |
| 1788608403 | 22.22° C | 77% | 1025.9 hPa | - | - | - | - |
| 1788607503 | 22.78° C | 76% | 1025.6 hPa | - | - | - | - |
| 1788606602 | 23.33° C | 65% | 1025.4 hPa | - | - | - | - |
| 1788605702 | 24.44° C | 65% | 1025.3 hPa | - | - | - | - |
| 1788604802 | 24.44° C | 66% | 1025.3 hPa | - | - | - | - |
| 1788603902 | 23.89° C | 68% | 1025.4 hPa | - | - | - | - |
| 1788603001 | 23.33° C | 71% | 1025.4 hPa | - | - | - | - |
| 1788602101 | 23.33° C | 70% | 1025.3 hPa | - | - | - | - |
| 1788601201 | 24.44° C | 67% | 1025.2 hPa | - | - | - | - |
| 1788600301 | 23.89° C | 67% | 1025.1 hPa | - | - | - | - |
| 1788599401 | 23.89° C | 69% | 1025.1 hPa | - | - | - | - |
| 1788598500 | 22.78° C | 71% | 1025.1 hPa | - | - | - | - |
| 1788597599 | 22.78° C | 73% | 1024.9 hPa | - | - | - | - |
| 1788596699 | 22.78° C | 71% | 1024.7 hPa | - | - | - | - |
| 1788595799 | 23.33° C | 69% | 1024.5 hPa | - | - | - | - |
| 1788594899 | 23.89° C | 66% | 1024.5 hPa | - | - | - | - |
* Rain since midnight (hover to see other rain measurements)
** Current wind speed in m/s (hover to see current wind gust speed)